ABY111 OPLA-OPIS
Flight info
| Callsign | ABY111 |
|---|---|
| Flight time | 0h 36m |
| Altitude | 20000 |
| Route | AKBER1D AKBER J121 INDEK INDEK1A |
| Aircraft | A320/M-VGDW/C |
Departure
| Time | 2026-04-26 20:53 |
|---|---|
| Airport | Allama Iqbal International Airport (OPLA) |
Arrival
| Time | 2026-04-26 21:30 |
|---|---|
| Airport | Islamabad International Airport (OPIS) |
| Time | Latitude | Longitude | Altitude | Speed | Heading |
|---|---|---|---|---|---|
| 2026-04-26 20:36 | 31.51838 | 74.40749 | 723 ft | 0 kts | 270° |
| 2026-04-26 20:48 | 31.51838 | 74.40767 | 723 ft | 2 kts | 270° |
| 2026-04-26 20:48 | 31.51838 | 74.40787 | 723 ft | 2 kts | 270° |
| 2026-04-26 20:48 | 31.51838 | 74.40807 | 723 ft | 2 kts | 280° |
| 2026-04-26 20:49 | 31.51840 | 74.40826 | 722 ft | 2 kts | 215° |
| 2026-04-26 20:49 | 31.51848 | 74.40831 | 725 ft | 0 kts | 179° |
| 2026-04-26 20:50 | 31.51839 | 74.40832 | 722 ft | 3 kts | 179° |
| 2026-04-26 20:50 | 31.51797 | 74.40833 | 723 ft | 9 kts | 179° |
| 2026-04-26 20:50 | 31.51729 | 74.40816 | 725 ft | 10 kts | 218° |
| 2026-04-26 20:50 | 31.51712 | 74.40742 | 722 ft | 9 kts | 270° |
| 2026-04-26 20:51 | 31.51697 | 74.40670 | 723 ft | 12 kts | 227° |
| 2026-04-26 20:51 | 31.51590 | 74.40655 | 724 ft | 18 kts | 180° |
| 2026-04-26 20:51 | 31.51447 | 74.40653 | 721 ft | 24 kts | 181° |
| 2026-04-26 20:51 | 31.51258 | 74.40654 | 720 ft | 30 kts | 181° |
| 2026-04-26 20:52 | 31.51034 | 74.40648 | 723 ft | 33 kts | 182° |
| 2026-04-26 20:52 | 31.50824 | 74.40637 | 722 ft | 22 kts | 185° |
| 2026-04-26 20:52 | 31.50698 | 74.40546 | 721 ft | 23 kts | 227° |
| 2026-04-26 20:52 | 31.50703 | 74.40439 | 719 ft | 17 kts | 345° |
| 2026-04-26 20:53 | 31.50920 | 74.40435 | 720 ft | 60 kts | 1° |
| 2026-04-26 20:53 | 31.51572 | 74.40447 | 722 ft | 126 kts | 1° |
| 2026-04-26 20:53 | 31.52631 | 74.40465 | 738 ft | 176 kts | 0° |
| 2026-04-26 20:53 | 31.53852 | 74.40495 | 1433 ft | 173 kts | 1° |
| 2026-04-26 20:54 | 31.55046 | 74.40528 | 2230 ft | 170 kts | 0° |
| 2026-04-26 20:54 | 31.56238 | 74.40494 | 2777 ft | 177 kts | 345° |
| 2026-04-26 20:54 | 31.57306 | 74.39668 | 3013 ft | 198 kts | 315° |
| 2026-04-26 20:54 | 31.58353 | 74.38468 | 3222 ft | 223 kts | 316° |
| 2026-04-26 20:55 | 31.59534 | 74.37145 | 3540 ft | 247 kts | 316° |
| 2026-04-26 20:55 | 31.60835 | 74.35707 | 4035 ft | 263 kts | 316° |
| 2026-04-26 20:55 | 31.62189 | 74.34222 | 4801 ft | 269 kts | 316° |
| 2026-04-26 20:55 | 31.63564 | 74.32726 | 5652 ft | 271 kts | 316° |
| 2026-04-26 20:56 | 31.64953 | 74.31218 | 6538 ft | 272 kts | 316° |
| 2026-04-26 20:56 | 31.66350 | 74.29703 | 7375 ft | 274 kts | 316° |
| 2026-04-26 20:56 | 31.67759 | 74.28176 | 8223 ft | 276 kts | 316° |
| 2026-04-26 20:56 | 31.69177 | 74.26638 | 9072 ft | 279 kts | 316° |
| 2026-04-26 20:57 | 31.70607 | 74.25087 | 9889 ft | 281 kts | 316° |
| 2026-04-26 20:57 | 31.72054 | 74.23519 | 10627 ft | 286 kts | 316° |
| 2026-04-26 20:57 | 31.73551 | 74.21894 | 10892 ft | 308 kts | 316° |
| 2026-04-26 20:57 | 31.75175 | 74.20132 | 11268 ft | 324 kts | 316° |
| 2026-04-26 20:58 | 31.76847 | 74.18316 | 11923 ft | 330 kts | 316° |
| 2026-04-26 20:58 | 31.78538 | 74.16478 | 12638 ft | 333 kts | 316° |
| 2026-04-26 20:58 | 31.80250 | 74.14615 | 13338 ft | 337 kts | 316° |
| 2026-04-26 20:58 | 31.81981 | 74.12729 | 13973 ft | 341 kts | 316° |
| 2026-04-26 20:59 | 31.83726 | 74.10829 | 14582 ft | 344 kts | 315° |
| 2026-04-26 20:59 | 31.85511 | 74.08934 | 15200 ft | 348 kts | 317° |
| 2026-04-26 20:59 | 31.87386 | 74.07109 | 15823 ft | 352 kts | 319° |
| 2026-04-26 20:59 | 31.89325 | 74.05317 | 16429 ft | 356 kts | 320° |
| 2026-04-26 21:00 | 31.91302 | 74.03528 | 17037 ft | 361 kts | 320° |
| 2026-04-26 21:00 | 31.93308 | 74.01716 | 17642 ft | 365 kts | 319° |
| 2026-04-26 21:00 | 31.95335 | 73.99888 | 18205 ft | 369 kts | 319° |
| 2026-04-26 21:00 | 31.97387 | 73.98063 | 18803 ft | 370 kts | 320° |
| 2026-04-26 21:01 | 31.99456 | 73.96235 | 19374 ft | 373 kts | 320° |
| 2026-04-26 21:01 | 32.01536 | 73.94394 | 19636 ft | 374 kts | 320° |
| 2026-04-26 21:01 | 32.03605 | 73.92559 | 19704 ft | 367 kts | 319° |
| 2026-04-26 21:01 | 32.05626 | 73.90763 | 19721 ft | 362 kts | 319° |
| 2026-04-26 21:02 | 32.07569 | 73.89036 | 19720 ft | 346 kts | 319° |
| 2026-04-26 21:02 | 32.09454 | 73.87362 | 19718 ft | 334 kts | 319° |
| 2026-04-26 21:02 | 32.11297 | 73.85715 | 19734 ft | 330 kts | 320° |
| 2026-04-26 21:02 | 32.13093 | 73.84106 | 19722 ft | 317 kts | 319° |
| 2026-04-26 21:03 | 32.14808 | 73.82570 | 19715 ft | 303 kts | 319° |
| 2026-04-26 21:03 | 32.16453 | 73.81093 | 19714 ft | 293 kts | 319° |
| 2026-04-26 21:03 | 32.18068 | 73.79640 | 19718 ft | 291 kts | 319° |
| 2026-04-26 21:03 | 32.19675 | 73.78193 | 19715 ft | 290 kts | 319° |
| 2026-04-26 21:04 | 32.21276 | 73.76750 | 19712 ft | 290 kts | 319° |
| 2026-04-26 21:04 | 32.22878 | 73.75306 | 19716 ft | 290 kts | 319° |
| 2026-04-26 21:04 | 32.24481 | 73.73863 | 19721 ft | 290 kts | 319° |
| 2026-04-26 21:04 | 32.26088 | 73.72419 | 19713 ft | 290 kts | 319° |
| 2026-04-26 21:05 | 32.27692 | 73.70976 | 19718 ft | 290 kts | 319° |
| 2026-04-26 21:05 | 32.29271 | 73.69553 | 19720 ft | 290 kts | 319° |
| 2026-04-26 21:05 | 32.30873 | 73.68108 | 19713 ft | 290 kts | 319° |
| 2026-04-26 21:05 | 32.32477 | 73.66663 | 19711 ft | 290 kts | 319° |
| 2026-04-26 21:06 | 32.34081 | 73.65220 | 19714 ft | 290 kts | 319° |
| 2026-04-26 21:06 | 32.35685 | 73.63774 | 19719 ft | 290 kts | 319° |
| 2026-04-26 21:06 | 32.37291 | 73.62324 | 19718 ft | 291 kts | 319° |
| 2026-04-26 21:06 | 32.38898 | 73.60872 | 19725 ft | 291 kts | 319° |
| 2026-04-26 21:07 | 32.40510 | 73.59417 | 19718 ft | 291 kts | 319° |
| 2026-04-26 21:07 | 32.42120 | 73.57965 | 19724 ft | 291 kts | 319° |
| 2026-04-26 21:07 | 32.43731 | 73.56511 | 19723 ft | 291 kts | 319° |
| 2026-04-26 21:07 | 32.45342 | 73.55058 | 19719 ft | 291 kts | 319° |
| 2026-04-26 21:08 | 32.46954 | 73.53604 | 19722 ft | 291 kts | 319° |
| 2026-04-26 21:08 | 32.48580 | 73.52136 | 19719 ft | 303 kts | 319° |
| 2026-04-26 21:08 | 32.50322 | 73.50554 | 19726 ft | 328 kts | 319° |
| 2026-04-26 21:08 | 32.52194 | 73.48847 | 19722 ft | 349 kts | 319° |
| 2026-04-26 21:09 | 32.54151 | 73.47065 | 19714 ft | 357 kts | 320° |
| 2026-04-26 21:09 | 32.56131 | 73.45272 | 19714 ft | 359 kts | 320° |
| 2026-04-26 21:09 | 32.58119 | 73.43474 | 19719 ft | 360 kts | 320° |
| 2026-04-26 21:09 | 32.60110 | 73.41674 | 19713 ft | 360 kts | 320° |
| 2026-04-26 21:10 | 32.62102 | 73.39873 | 19717 ft | 359 kts | 320° |
| 2026-04-26 21:10 | 32.64065 | 73.38093 | 19714 ft | 359 kts | 320° |
| 2026-04-26 21:10 | 32.66055 | 73.36285 | 19728 ft | 359 kts | 320° |
| 2026-04-26 21:10 | 32.68036 | 73.34482 | 19717 ft | 359 kts | 320° |
| 2026-04-26 21:11 | 32.70021 | 73.32672 | 19720 ft | 359 kts | 320° |
| 2026-04-26 21:11 | 32.72001 | 73.30865 | 19718 ft | 360 kts | 320° |
| 2026-04-26 21:11 | 32.73989 | 73.29054 | 19726 ft | 360 kts | 320° |
| 2026-04-26 21:11 | 32.76084 | 73.27416 | 19719 ft | 363 kts | 330° |
| 2026-04-26 21:12 | 32.78445 | 73.26346 | 19458 ft | 365 kts | 343° |
| 2026-04-26 21:12 | 32.80953 | 73.25861 | 18995 ft | 365 kts | 349° |
| 2026-04-26 21:12 | 32.83471 | 73.25462 | 18486 ft | 365 kts | 349° |
| 2026-04-26 21:12 | 32.85998 | 73.25058 | 17931 ft | 367 kts | 349° |
| 2026-04-26 21:13 | 32.88527 | 73.24648 | 17417 ft | 366 kts | 349° |
| 2026-04-26 21:13 | 32.91034 | 73.24236 | 16937 ft | 363 kts | 348° |
| 2026-04-26 21:13 | 32.93530 | 73.23824 | 16490 ft | 360 kts | 348° |
| 2026-04-26 21:13 | 32.96004 | 73.23412 | 16040 ft | 358 kts | 348° |
| 2026-04-26 21:14 | 32.98462 | 73.23000 | 15591 ft | 355 kts | 348° |
| 2026-04-26 21:14 | 33.00904 | 73.22593 | 15124 ft | 353 kts | 348° |
| 2026-04-26 21:14 | 33.03313 | 73.22192 | 14463 ft | 348 kts | 348° |
| 2026-04-26 21:14 | 33.05695 | 73.21797 | 13736 ft | 345 kts | 348° |
| 2026-04-26 21:15 | 33.08045 | 73.21406 | 13108 ft | 345 kts | 349° |
| 2026-04-26 21:15 | 33.10418 | 73.21011 | 12660 ft | 343 kts | 349° |
| 2026-04-26 21:15 | 33.12772 | 73.20618 | 12228 ft | 340 kts | 349° |
| 2026-04-26 21:15 | 33.15085 | 73.20231 | 12034 ft | 330 kts | 349° |
| 2026-04-26 21:16 | 33.17318 | 73.19856 | 11912 ft | 318 kts | 349° |
| 2026-04-26 21:16 | 33.19478 | 73.19496 | 11785 ft | 308 kts | 349° |
| 2026-04-26 21:16 | 33.21573 | 73.19148 | 11566 ft | 301 kts | 349° |
| 2026-04-26 21:16 | 33.23627 | 73.18805 | 11061 ft | 296 kts | 349° |
| 2026-04-26 21:17 | 33.25654 | 73.18463 | 10379 ft | 292 kts | 349° |
| 2026-04-26 21:17 | 33.27649 | 73.18122 | 9535 ft | 287 kts | 349° |
| 2026-04-26 21:17 | 33.29604 | 73.17787 | 8627 ft | 281 kts | 349° |
| 2026-04-26 21:17 | 33.31526 | 73.17467 | 7709 ft | 277 kts | 349° |
| 2026-04-26 21:18 | 33.33422 | 73.17149 | 6802 ft | 274 kts | 350° |
| 2026-04-26 21:18 | 33.35268 | 73.16841 | 6281 ft | 257 kts | 350° |
| 2026-04-26 21:18 | 33.36980 | 73.16558 | 5999 ft | 242 kts | 350° |
| 2026-04-26 21:18 | 33.38638 | 73.16279 | 5684 ft | 239 kts | 349° |
| 2026-04-26 21:19 | 33.40238 | 73.15837 | 5374 ft | 235 kts | 336° |
| 2026-04-26 21:19 | 33.41647 | 73.14894 | 5053 ft | 231 kts | 321° |
| 2026-04-26 21:19 | 33.42843 | 73.13610 | 4725 ft | 230 kts | 316° |
| 2026-04-26 21:19 | 33.44005 | 73.12331 | 4411 ft | 230 kts | 316° |
| 2026-04-26 21:20 | 33.45181 | 73.11042 | 4099 ft | 229 kts | 317° |
| 2026-04-26 21:20 | 33.46352 | 73.09757 | 3798 ft | 228 kts | 317° |
| 2026-04-26 21:20 | 33.47501 | 73.08499 | 3695 ft | 219 kts | 317° |
| 2026-04-26 21:20 | 33.48590 | 73.07308 | 3693 ft | 205 kts | 317° |
| 2026-04-26 21:21 | 33.49606 | 73.06197 | 3714 ft | 188 kts | 317° |
| 2026-04-26 21:21 | 33.50525 | 73.05192 | 3693 ft | 170 kts | 317° |
| 2026-04-26 21:21 | 33.51238 | 73.04156 | 3697 ft | 156 kts | 300° |
| 2026-04-26 21:21 | 33.51568 | 73.02951 | 3694 ft | 151 kts | 284° |
| 2026-04-26 21:22 | 33.51776 | 73.01732 | 3705 ft | 149 kts | 284° |
| 2026-04-26 21:22 | 33.51974 | 73.00523 | 3706 ft | 147 kts | 283° |
| 2026-04-26 21:22 | 33.52168 | 72.99320 | 3704 ft | 147 kts | 283° |
| 2026-04-26 21:23 | 33.52479 | 72.96924 | 3697 ft | 149 kts | 264° |
| 2026-04-26 21:23 | 33.52079 | 72.95748 | 3698 ft | 153 kts | 244° |
| 2026-04-26 21:23 | 33.51526 | 72.94691 | 3692 ft | 153 kts | 240° |
| 2026-04-26 21:23 | 33.50959 | 72.93667 | 3691 ft | 154 kts | 239° |
| 2026-04-26 21:24 | 33.50405 | 72.92614 | 3685 ft | 152 kts | 251° |
| 2026-04-26 21:24 | 33.50312 | 72.91390 | 3691 ft | 148 kts | 277° |
| 2026-04-26 21:24 | 33.50462 | 72.90172 | 3696 ft | 148 kts | 282° |
| 2026-04-26 21:24 | 33.50651 | 72.88963 | 3690 ft | 148 kts | 283° |
| 2026-04-26 21:25 | 33.50846 | 72.87757 | 3691 ft | 147 kts | 283° |
| 2026-04-26 21:25 | 33.51042 | 72.86550 | 3693 ft | 148 kts | 283° |
| 2026-04-26 21:25 | 33.51239 | 72.85346 | 3695 ft | 147 kts | 283° |
| 2026-04-26 21:25 | 33.51435 | 72.84142 | 3692 ft | 147 kts | 283° |
| 2026-04-26 21:26 | 33.51632 | 72.82938 | 3693 ft | 147 kts | 283° |
| 2026-04-26 21:26 | 33.51829 | 72.81732 | 3699 ft | 147 kts | 283° |
| 2026-04-26 21:26 | 33.52026 | 72.80523 | 3694 ft | 149 kts | 283° |
| 2026-04-26 21:26 | 33.52225 | 72.79300 | 3695 ft | 150 kts | 283° |
| 2026-04-26 21:27 | 33.52425 | 72.78073 | 3697 ft | 150 kts | 283° |
| 2026-04-26 21:27 | 33.52624 | 72.76849 | 3701 ft | 150 kts | 283° |
| 2026-04-26 21:27 | 33.52824 | 72.75621 | 3697 ft | 150 kts | 283° |
| 2026-04-26 21:27 | 33.53081 | 72.74421 | 3713 ft | 149 kts | 306° |
| 2026-04-26 21:28 | 33.53936 | 72.73818 | 3686 ft | 149 kts | 355° |
| 2026-04-26 21:28 | 33.54923 | 72.74125 | 3553 ft | 153 kts | 31° |
| 2026-04-26 21:28 | 33.55650 | 72.75054 | 3428 ft | 155 kts | 55° |
| 2026-04-26 21:28 | 33.55999 | 72.76279 | 3241 ft | 161 kts | 91° |
| 2026-04-26 21:29 | 33.55627 | 72.77556 | 2849 ft | 169 kts | 111° |
| 2026-04-26 21:29 | 33.55326 | 72.78960 | 2345 ft | 177 kts | 96° |
| 2026-04-26 21:29 | 33.55141 | 72.80439 | 1873 ft | 180 kts | 102° |
| 2026-04-26 21:29 | 33.54927 | 72.81828 | 1761 ft | 152 kts | 102° |
| 2026-04-26 21:30 | 33.54796 | 72.82649 | 1761 ft | 54 kts | 102° |
| 2026-04-26 21:30 | 33.54773 | 72.82958 | 1766 ft | 28 kts | 82° |
| 2026-04-26 21:30 | 33.54819 | 72.83151 | 1769 ft | 14 kts | 69° |
| 2026-04-26 21:30 | 33.54840 | 72.83221 | 1770 ft | 12 kts | 73° |
| 2026-04-26 21:31 | 33.54872 | 72.83375 | 1770 ft | 19 kts | 81° |
| 2026-04-26 21:31 | 33.54922 | 72.83457 | 1770 ft | 12 kts | 19° |
| 2026-04-26 21:31 | 33.55003 | 72.83476 | 1769 ft | 11 kts | 8° |
| 2026-04-26 21:31 | 33.55053 | 72.83486 | 1770 ft | 11 kts | 12° |
| 2026-04-26 21:32 | 33.55180 | 72.83515 | 1768 ft | 17 kts | 10° |
| 2026-04-26 21:32 | 33.55284 | 72.83544 | 1767 ft | 11 kts | 20° |
| 2026-04-26 21:32 | 33.55356 | 72.83571 | 1767 ft | 11 kts | 11° |
| 2026-04-26 21:32 | 33.55401 | 72.83582 | 1769 ft | 5 kts | 11° |
| 2026-04-26 21:33 | 33.55423 | 72.83587 | 1769 ft | 4 kts | 11° |
| 2026-04-26 21:33 | 33.55427 | 72.83588 | 1771 ft | 0 kts | 11° |